Etusivu
METAR-TAF:

METAR-TAF

Lentoasemat :

Rygge, Norja

Leveyspiiri: 59-23N, Pituuspiiri: 010-47E, korkeus merenpinnasta: 5 m

Tämänhetkinen sää

Tämä raportti tehtiin 15 minuuttia sitten, kello 13.20 UTC
Tuuli 7 kn etelästä/lounaasta, vaihdellen etelän/kaakon ja lounaan välillä
Lämpötila 26°C
Kosteus 26%
Ilmanpaine 1028 hPa
Näkyvyys 10 km tai enemmän
ei pilviä alle 1500 m:ssä eikä cumulonimbus-pilviä

METAR: ENRY 241320Z 20007KT 160V230 CAVOK 26/05 Q1028 NOSIG

Aika: 15:35 (13:35 UTC)

Sääennuste

Ennuste voimassa 24. päivästä klo 12 UTC - 25. päivään klo 12 UTC
Tuuli 10 kn etelästä/lounaasta
Näkyvyys 10 km tai enemmän
ei pilviä alle 1500 m:ssä eikä cumulonimbus-pilviä
Tulossa
24. päivästä klo 20 UTC - 24. päivään klo 22 UTC
Tuuli 3 kn eri suunnista

TAF: ENRY 2412/2512 20010KT CAVOK BECMG 2420/2422 VRB03KT

Säähavainnot ja -ennusteet yli 4000 lentoasemalta (METAR- ja TAF-raportit).

Käytössä olevat sääasemat on merkitty karttaan keltaisilla ja punaisilla pisteillä.

Aseta hiiri pisteen päälle nähdäksesi sääaseman nimen.

Klikkaa sitten nähdäksesi säähavainnot ja -ennusteet.

Kartan vaihtaminen: klikkaa mustalla rastilla varustettuja vihreitä pisteitä, niin voit zoomata sisään; viivalla varustettua vihreää pistettä, niin voit zoomata ulos tai vihreitä nuolia, niin pääset viereisille kartoille.


METAR-TAF: